createdAt,value
2023-01-08T00:01:39.012Z,11.85
2023-01-08T00:04:07.650Z,11.86
2023-01-08T00:06:37.779Z,11.84
2023-01-08T00:09:06.270Z,11.84
2023-01-08T00:11:34.731Z,11.83
2023-01-08T00:14:03.209Z,11.81
2023-01-08T00:16:32.698Z,11.78
2023-01-08T00:19:01.225Z,11.79
2023-01-08T00:21:30.070Z,11.81
2023-01-08T00:23:59.958Z,11.83
2023-01-08T00:26:28.401Z,11.84
2023-01-08T00:28:56.904Z,11.86
2023-01-08T00:31:25.667Z,11.88
2023-01-08T00:33:54.158Z,11.89
2023-01-08T00:36:22.716Z,11.90
2023-01-08T00:38:51.333Z,11.90
2023-01-08T00:41:21.159Z,11.89
2023-01-08T00:43:49.552Z,11.88
2023-01-08T00:46:18.158Z,11.87
2023-01-08T00:48:46.653Z,11.86
2023-01-08T00:51:15.144Z,11.85
2023-01-08T00:53:43.624Z,11.85
2023-01-08T00:56:12.499Z,11.84
2023-01-08T00:58:42.308Z,11.86
2023-01-08T01:01:13.657Z,11.85
2023-01-08T01:03:42.909Z,11.85
2023-01-08T01:06:14.438Z,11.84
2023-01-08T01:08:44.387Z,11.83
2023-01-08T01:11:19.738Z,11.81
2023-01-08T01:13:50.119Z,11.79
2023-01-08T01:16:18.886Z,11.80
2023-01-08T01:18:47.538Z,11.81
2023-01-08T01:21:24.057Z,11.81
2023-01-08T01:23:55.075Z,11.81
2023-01-08T01:26:24.863Z,11.80
2023-01-08T01:28:56.815Z,11.77
2023-01-08T01:31:26.944Z,11.76
2023-01-08T01:33:55.533Z,11.74
2023-01-08T01:36:25.747Z,11.73
2023-01-08T01:38:57.274Z,11.71
2023-01-08T01:41:29.662Z,11.72
2023-01-08T01:44:21.176Z,11.73
2023-01-08T01:46:51.119Z,11.73
2023-01-08T01:49:23.729Z,11.71
2023-01-08T01:52:00.997Z,11.72
2023-01-08T01:54:30.830Z,11.72
2023-01-08T01:57:00.773Z,11.73
2023-01-08T01:59:30.868Z,11.73
2023-01-08T02:02:00.618Z,11.72
2023-01-08T02:04:29.239Z,11.70
2023-01-08T02:07:05.597Z,11.68
2023-01-08T02:09:44.356Z,11.66
2023-01-08T02:12:19.973Z,11.64
2023-01-08T02:15:04.236Z,11.62
2023-01-08T02:17:41.138Z,11.61
2023-01-08T02:20:14.969Z,11.63
2023-01-08T02:22:59.422Z,11.64
2023-01-08T02:25:41.901Z,11.62
2023-01-08T02:28:15.894Z,11.62
2023-01-08T02:30:47.750Z,11.60
2023-01-08T02:33:16.165Z,11.58
2023-01-08T02:35:53.353Z,11.56
2023-01-08T02:38:22.926Z,11.57
2023-01-08T02:40:58.282Z,11.55
2023-01-08T02:43:37.256Z,11.55
2023-01-08T02:46:07.721Z,11.52
2023-01-08T02:48:41.196Z,11.52
2023-01-08T02:51:17.622Z,11.53
2023-01-08T02:53:51.431Z,11.56
2023-01-08T02:56:23.590Z,11.56
2023-01-08T02:58:55.305Z,11.55
2023-01-08T03:01:27.405Z,11.54
2023-01-08T03:04:03.284Z,11.54
2023-01-08T03:06:33.134Z,11.53
2023-01-08T03:09:02.215Z,11.52
2023-01-08T03:11:40.209Z,11.52
2023-01-08T03:14:16.854Z,11.52
2023-01-08T03:16:50.032Z,11.52
2023-01-08T03:19:23.279Z,11.50
2023-01-08T03:21:53.821Z,11.47
2023-01-08T03:24:27.087Z,11.43
2023-01-08T03:27:02.007Z,11.40
2023-01-08T03:29:32.908Z,11.38
2023-01-08T03:32:07.691Z,11.38
2023-01-08T03:34:39.154Z,11.37
2023-01-08T03:37:10.953Z,11.37
2023-01-08T03:39:45.458Z,11.36
2023-01-08T03:42:18.190Z,11.33
2023-01-08T03:44:48.344Z,11.30
2023-01-08T03:47:17.539Z,11.27
2023-01-08T03:49:47.234Z,11.24
2023-01-08T03:52:24.602Z,11.22
2023-01-08T03:54:53.192Z,11.19
2023-01-08T03:57:22.010Z,11.16
2023-01-08T03:59:51.997Z,11.15
2023-01-08T04:02:20.648Z,11.14
2023-01-08T04:04:49.708Z,11.10
2023-01-08T04:07:18.161Z,11.06
2023-01-08T04:09:47.141Z,11.02
2023-01-08T04:12:15.528Z,11.03
2023-01-08T04:14:43.916Z,11.02
2023-01-08T04:17:15.404Z,11.00
2023-01-08T04:19:43.829Z,11.02
2023-01-08T04:22:12.618Z,11.02
2023-01-08T04:24:40.993Z,11.02
2023-01-08T04:27:09.379Z,11.03
2023-01-08T04:29:37.806Z,11.03
2023-01-08T04:32:06.424Z,11.04
2023-01-08T04:34:36.219Z,11.01
2023-01-08T04:37:04.653Z,11.00
2023-01-08T04:39:33.052Z,11.00
2023-01-08T04:42:01.589Z,10.99
2023-01-08T04:44:30.034Z,10.98
2023-01-08T04:46:58.399Z,10.97
2023-01-08T04:49:26.823Z,10.97
2023-01-08T04:51:56.569Z,10.93
2023-01-08T04:54:24.925Z,10.92
2023-01-08T04:56:53.691Z,10.89
2023-01-08T04:59:22.060Z,10.87
2023-01-08T05:01:50.619Z,10.86
2023-01-08T05:04:19.059Z,10.87
2023-01-08T05:06:47.442Z,10.87
2023-01-08T05:09:17.202Z,10.86
2023-01-08T05:11:45.592Z,10.86
2023-01-08T05:14:13.943Z,10.84
2023-01-08T05:16:42.362Z,10.86
2023-01-08T05:19:10.742Z,10.86
2023-01-08T05:21:39.167Z,10.85
2023-01-08T05:24:09.318Z,10.84
2023-01-08T05:26:39.155Z,10.83
2023-01-08T05:29:07.527Z,10.83
2023-01-08T05:31:36.463Z,10.84
2023-01-08T05:34:04.825Z,10.86
2023-01-08T05:36:33.231Z,10.86
2023-01-08T05:39:01.654Z,10.87
2023-01-08T05:41:30.044Z,10.87
2023-01-08T05:43:59.793Z,10.87
2023-01-08T05:46:28.265Z,10.87
2023-01-08T05:48:56.749Z,10.88
2023-01-08T05:51:25.145Z,10.88
2023-01-08T05:53:53.576Z,10.87
2023-01-08T05:56:22.416Z,10.85
2023-01-08T05:58:50.795Z,10.83
2023-01-08T06:01:20.611Z,10.80
2023-01-08T06:03:49.047Z,10.78
2023-01-08T06:06:18.379Z,10.76
2023-01-08T06:08:46.772Z,10.72
2023-01-08T06:11:15.319Z,10.69
2023-01-08T06:13:45.151Z,10.69
2023-01-08T06:16:13.817Z,10.70
2023-01-08T06:18:43.658Z,10.71
2023-01-08T06:21:13.367Z,10.67
2023-01-08T06:23:42.019Z,10.64
2023-01-08T06:26:10.583Z,10.59
2023-01-08T06:28:38.960Z,10.58
2023-01-08T06:31:07.427Z,10.56
2023-01-08T06:33:35.887Z,10.55
2023-01-08T06:36:06.859Z,10.55
2023-01-08T06:38:38.196Z,10.54
2023-01-08T06:41:08.812Z,10.55
2023-01-08T06:43:37.995Z,10.54
2023-01-08T06:46:07.393Z,10.56
2023-01-08T06:48:35.933Z,10.58
2023-01-08T06:51:07.115Z,10.58
2023-01-08T06:53:35.897Z,10.61
2023-01-08T06:56:07.573Z,10.64
2023-01-08T06:58:36.063Z,10.66
2023-01-08T07:01:04.646Z,10.66
2023-01-08T07:03:33.193Z,10.68
2023-01-08T07:06:06.069Z,10.70
2023-01-08T07:08:34.498Z,10.74
2023-01-08T07:11:04.997Z,10.71
2023-01-08T07:13:33.447Z,10.70
2023-01-08T07:16:08.243Z,10.66
2023-01-08T07:18:37.530Z,10.68
2023-01-08T07:21:08.976Z,10.68
2023-01-08T07:23:38.467Z,10.71
2023-01-08T07:26:08.587Z,10.73
2023-01-08T07:28:37.003Z,10.75
2023-01-08T07:31:07.425Z,10.75
2023-01-08T07:33:36.304Z,10.76
2023-01-08T07:36:07.130Z,10.76
2023-01-08T07:38:35.545Z,10.77
2023-01-08T07:41:04.683Z,10.76
2023-01-08T07:43:33.139Z,10.77
2023-01-08T07:46:04.342Z,10.79
2023-01-08T07:48:33.021Z,10.79
2023-01-08T07:51:08.686Z,10.76
2023-01-08T07:53:38.576Z,10.74
2023-01-08T07:56:09.973Z,10.73
2023-01-08T07:58:39.597Z,10.74
2023-01-08T08:01:12.575Z,10.75
2023-01-08T08:03:41.472Z,10.77
2023-01-08T08:06:11.651Z,10.76
2023-01-08T08:08:42.076Z,10.75
2023-01-08T08:11:10.809Z,10.74
2023-01-08T08:13:42.617Z,10.75
2023-01-08T08:16:11.212Z,10.75
2023-01-08T08:18:39.656Z,10.77
2023-01-08T08:21:08.089Z,10.80
2023-01-08T08:23:37.836Z,10.82
2023-01-08T08:26:07.853Z,10.80
2023-01-08T08:28:36.259Z,10.77
2023-01-08T08:31:04.727Z,10.72
2023-01-08T08:33:33.235Z,10.70
2023-01-08T08:36:01.687Z,10.70
2023-01-08T08:38:30.110Z,10.72
2023-01-08T08:40:59.896Z,10.73
2023-01-08T08:43:28.422Z,10.73
2023-01-08T08:45:57.438Z,10.71
2023-01-08T08:48:26.102Z,10.71
2023-01-08T08:50:54.487Z,10.70
2023-01-08T08:53:22.897Z,10.71
2023-01-08T08:55:51.328Z,10.72
2023-01-08T08:58:21.103Z,10.74
2023-01-08T09:00:49.531Z,10.76
2023-01-08T09:03:18.711Z,10.77
2023-01-08T09:05:47.267Z,10.80
2023-01-08T09:08:15.675Z,10.80
2023-01-08T09:10:44.062Z,10.82
2023-01-08T09:13:13.164Z,10.82
2023-01-08T09:15:42.935Z,10.82
2023-01-08T09:18:11.736Z,10.83
2023-01-08T09:20:40.209Z,10.82
2023-01-08T09:23:08.640Z,10.84
2023-01-08T09:25:37.060Z,10.86
2023-01-08T09:28:08.372Z,10.89
2023-01-08T09:30:37.053Z,10.92
2023-01-08T09:33:07.548Z,10.95
2023-01-08T09:35:36.117Z,10.97
2023-01-08T09:38:04.575Z,10.96
2023-01-08T09:40:40.548Z,10.95
2023-01-08T09:43:17.529Z,10.96
2023-01-08T09:45:52.709Z,10.95
2023-01-08T09:48:27.752Z,10.99
2023-01-08T09:50:56.355Z,11.01
2023-01-08T09:53:25.606Z,11.04
2023-01-08T09:56:09.617Z,11.05
2023-01-08T09:58:41.097Z,11.06
2023-01-08T10:01:13.904Z,11.12
2023-01-08T10:03:47.929Z,11.17
2023-01-08T10:06:18.100Z,11.20
2023-01-08T10:08:47.347Z,11.24
2023-01-08T10:11:16.592Z,11.30
2023-01-08T10:13:50.657Z,11.32
2023-01-08T10:16:30.513Z,11.36
2023-01-08T10:19:01.846Z,11.41
2023-01-08T10:21:33.841Z,11.44
2023-01-08T10:24:02.259Z,11.48
2023-01-08T10:26:32.719Z,11.52
2023-01-08T10:29:19.231Z,11.50
2023-01-08T10:31:51.956Z,11.49
2023-01-08T10:34:32.629Z,11.49
2023-01-08T10:37:01.684Z,11.49
2023-01-08T10:39:33.180Z,11.52
2023-01-08T10:42:07.909Z,11.55
2023-01-08T10:44:36.966Z,11.60
2023-01-08T10:47:07.230Z,11.62
2023-01-08T10:49:41.988Z,11.60
2023-01-08T10:52:33.011Z,11.58
2023-01-08T10:55:22.528Z,11.60
2023-01-08T10:58:00.888Z,11.62
2023-01-08T11:00:32.654Z,11.62
2023-01-08T11:03:03.857Z,11.68
2023-01-08T11:05:36.735Z,11.71
2023-01-08T11:08:09.636Z,11.74
2023-01-08T11:10:39.090Z,11.76
2023-01-08T11:13:09.203Z,11.76
2023-01-08T11:15:40.323Z,11.77
2023-01-08T11:18:20.412Z,11.78
2023-01-08T11:20:52.184Z,11.81
2023-01-08T11:23:24.155Z,11.82
2023-01-08T11:26:06.531Z,11.81
2023-01-08T11:28:51.922Z,11.79
2023-01-08T11:31:30.176Z,11.78
2023-01-08T11:34:08.908Z,11.77
2023-01-08T11:36:54.016Z,11.76
2023-01-08T11:39:22.511Z,11.80
2023-01-08T11:42:21.279Z,11.80
2023-01-08T11:45:06.542Z,11.81
2023-01-08T11:48:04.049Z,11.82
2023-01-08T11:50:42.207Z,11.83
2023-01-08T11:53:30.301Z,11.83
2023-01-08T11:56:16.152Z,11.83
2023-01-08T11:59:06.629Z,11.87
2023-01-08T12:01:50.043Z,11.89
2023-01-08T12:04:59.416Z,11.88
2023-01-08T12:07:37.579Z,11.88
2023-01-08T12:10:22.210Z,11.85
2023-01-08T12:13:07.840Z,11.86
2023-01-08T12:15:50.328Z,11.84
2023-01-08T12:18:36.941Z,11.86
2023-01-08T12:21:16.542Z,11.88
2023-01-08T12:24:24.892Z,11.85
2023-01-08T12:27:03.022Z,11.84
2023-01-08T12:30:01.529Z,11.84
2023-01-08T12:32:36.401Z,11.84
2023-01-08T12:35:12.365Z,11.82
2023-01-08T12:37:51.697Z,11.78
2023-01-08T12:40:27.007Z,11.79
2023-01-08T12:43:03.077Z,11.76
2023-01-08T12:45:37.975Z,11.70
2023-01-08T12:48:11.985Z,11.66
2023-01-08T12:50:58.990Z,11.63
2023-01-08T12:53:41.813Z,11.61
2023-01-08T12:56:17.201Z,11.59
2023-01-08T12:59:09.955Z,11.57
2023-01-08T13:01:48.808Z,11.55
2023-01-08T13:04:17.695Z,11.54
2023-01-08T13:06:59.714Z,11.51
2023-01-08T13:09:28.840Z,11.52
2023-01-08T13:12:00.779Z,11.52
2023-01-08T13:14:41.381Z,11.55
2023-01-08T13:17:20.145Z,11.58
2023-01-08T13:19:55.803Z,11.64
2023-01-08T13:22:28.615Z,11.67
2023-01-08T13:25:28.274Z,11.67
2023-01-08T13:27:56.803Z,11.71
2023-01-08T13:30:39.374Z,11.72
2023-01-08T13:33:43.263Z,11.75
2023-01-08T13:36:22.182Z,11.79
2023-01-08T13:39:03.254Z,11.82
2023-01-08T13:41:33.268Z,11.86
2023-01-08T13:44:07.101Z,11.90
2023-01-08T13:46:41.059Z,11.93
2023-01-08T13:49:11.796Z,11.97
2023-01-08T13:51:44.976Z,11.97
2023-01-08T13:54:29.244Z,11.96
2023-01-08T13:57:13.183Z,11.98
2023-01-08T13:59:44.753Z,12.02
2023-01-08T14:02:33.699Z,12.06
2023-01-08T14:05:04.274Z,12.12
2023-01-08T14:07:32.780Z,12.15
2023-01-08T14:10:10.897Z,12.14
2023-01-08T14:12:39.470Z,12.17
2023-01-08T14:15:11.570Z,12.17
2023-01-08T14:17:45.769Z,12.17
2023-01-08T14:20:14.438Z,12.19
2023-01-08T14:22:44.040Z,12.20
2023-01-08T14:25:20.031Z,12.22
2023-01-08T14:28:02.041Z,12.23
2023-01-08T14:30:31.165Z,12.26
2023-01-08T14:33:01.902Z,12.25
2023-01-08T14:35:34.704Z,12.27
2023-01-08T14:38:05.740Z,12.30
2023-01-08T14:40:40.673Z,12.31
2023-01-08T14:43:12.665Z,12.31
2023-01-08T14:45:47.585Z,12.31
2023-01-08T14:48:23.864Z,12.31
2023-01-08T14:51:04.573Z,12.33
2023-01-08T14:53:37.681Z,12.30
2023-01-08T14:56:08.015Z,12.24
2023-01-08T14:58:40.324Z,12.18
2023-01-08T15:01:16.033Z,12.14
2023-01-08T15:03:48.034Z,12.10
2023-01-08T15:06:27.335Z,12.07
2023-01-08T15:08:55.804Z,12.03
2023-01-08T15:11:26.850Z,11.97
2023-01-08T15:13:57.303Z,11.95
2023-01-08T15:16:32.088Z,11.94
2023-01-08T15:19:08.590Z,11.93
2023-01-08T15:21:37.785Z,11.89
2023-01-08T15:24:08.749Z,11.87
2023-01-08T15:26:42.949Z,11.80
2023-01-08T15:29:20.576Z,11.78
2023-01-08T15:31:50.627Z,11.79
2023-01-08T15:34:22.176Z,11.79
2023-01-08T15:36:50.692Z,11.82
2023-01-08T15:39:19.094Z,11.82
2023-01-08T15:42:04.807Z,11.84
2023-01-08T15:44:33.258Z,11.80
2023-01-08T15:47:01.672Z,11.78
2023-01-08T15:49:31.425Z,11.77
2023-01-08T15:52:00.082Z,11.77
2023-01-08T15:54:28.532Z,11.76
2023-01-08T15:56:56.936Z,11.76
2023-01-08T15:59:25.520Z,11.75
2023-01-08T16:01:54.807Z,11.76
2023-01-08T16:04:24.135Z,11.77
2023-01-08T16:06:53.944Z,11.79
2023-01-08T16:09:22.882Z,11.82
2023-01-08T16:11:52.691Z,11.85
2023-01-08T16:14:21.383Z,11.87
2023-01-08T16:16:50.128Z,11.88
2023-01-08T16:19:19.209Z,11.88
2023-01-08T16:21:50.194Z,11.87
2023-01-08T16:24:20.345Z,11.86
2023-01-08T16:26:50.958Z,11.86
2023-01-08T16:29:20.044Z,11.89
2023-01-08T16:31:49.996Z,11.92
2023-01-08T16:34:20.219Z,11.93
2023-01-08T16:36:50.644Z,11.91
2023-01-08T16:39:21.311Z,11.91
2023-01-08T16:41:51.486Z,11.90
2023-01-08T16:44:22.929Z,11.90
2023-01-08T16:46:52.864Z,11.90
2023-01-08T16:49:21.569Z,11.91
2023-01-08T16:51:50.438Z,11.92
2023-01-08T16:54:22.055Z,11.94
2023-01-08T16:56:51.451Z,11.94
2023-01-08T16:59:23.706Z,11.95
2023-01-08T17:01:52.953Z,11.93
2023-01-08T17:04:22.231Z,11.95
2023-01-08T17:06:51.117Z,11.97
2023-01-08T17:09:21.272Z,11.97
2023-01-08T17:11:50.189Z,11.96
2023-01-08T17:14:18.740Z,11.93
2023-01-08T17:16:49.510Z,11.86
2023-01-08T17:19:18.996Z,11.78
2023-01-08T17:21:48.189Z,11.70
2023-01-08T17:24:17.232Z,11.63
2023-01-08T17:26:48.136Z,11.58
2023-01-08T17:29:18.059Z,11.52
2023-01-08T17:31:48.511Z,11.50
2023-01-08T17:34:18.211Z,11.47
2023-01-08T17:36:47.851Z,11.44
2023-01-08T17:39:17.144Z,11.43
2023-01-08T17:42:01.473Z,11.42
2023-01-08T17:44:31.520Z,11.43
2023-01-08T17:47:00.640Z,11.44
2023-01-08T17:49:31.097Z,11.43
2023-01-08T17:52:00.520Z,11.44
2023-01-08T17:54:31.357Z,11.44
2023-01-08T17:57:02.821Z,11.42
2023-01-08T17:59:32.221Z,11.40
2023-01-08T18:02:01.791Z,11.38
2023-01-08T18:04:35.201Z,11.35
2023-01-08T18:07:04.593Z,11.32
2023-01-08T18:09:36.653Z,11.29
2023-01-08T18:12:08.463Z,11.26
2023-01-08T18:14:39.223Z,11.24
2023-01-08T18:17:08.574Z,11.23
2023-01-08T18:19:37.318Z,11.22
2023-01-08T18:22:06.803Z,11.22
2023-01-08T18:24:36.164Z,11.24
2023-01-08T18:27:07.170Z,11.25
2023-01-08T18:29:37.819Z,11.26
2023-01-08T18:32:07.140Z,11.26
2023-01-08T18:34:39.690Z,11.26
2023-01-08T18:37:11.783Z,11.23
2023-01-08T18:39:40.783Z,11.20
2023-01-08T18:42:27.120Z,11.18
2023-01-08T18:44:56.885Z,11.13
2023-01-08T18:47:29.169Z,11.10
2023-01-08T18:50:03.151Z,11.07
2023-01-08T18:52:32.956Z,11.06
2023-01-08T18:55:01.714Z,11.07
2023-01-08T18:57:32.064Z,11.07
2023-01-08T19:00:01.520Z,11.07
2023-01-08T19:02:32.004Z,11.07
2023-01-08T19:05:03.076Z,11.08
2023-01-08T19:07:34.291Z,11.07
2023-01-08T19:10:03.893Z,11.10
2023-01-08T19:12:35.261Z,11.10
2023-01-08T19:15:05.203Z,11.11
2023-01-08T19:17:35.234Z,11.12
2023-01-08T19:20:05.819Z,11.12
2023-01-08T19:22:34.896Z,11.11
2023-01-08T19:25:03.641Z,11.11
2023-01-08T19:27:35.084Z,11.08
2023-01-08T19:30:06.270Z,11.01
2023-01-08T19:32:35.500Z,10.96
2023-01-08T19:35:05.206Z,10.88
2023-01-08T19:37:34.730Z,10.83
2023-01-08T19:40:06.804Z,10.75
2023-01-08T19:42:57.138Z,10.67
2023-01-08T19:45:27.091Z,10.57
2023-01-08T19:47:56.381Z,10.53
2023-01-08T19:50:25.821Z,10.49
2023-01-08T19:52:57.004Z,10.43
2023-01-08T19:55:27.562Z,10.39
2023-01-08T19:57:59.967Z,10.33
2023-01-08T20:00:30.480Z,10.26
2023-01-08T20:03:00.715Z,10.25
2023-01-08T20:05:30.555Z,10.21
2023-01-08T20:08:00.399Z,10.17
2023-01-08T20:10:31.078Z,10.14
2023-01-08T20:13:02.452Z,10.10
2023-01-08T20:15:32.823Z,10.07
2023-01-08T20:18:02.379Z,10.03
2023-01-08T20:20:32.631Z,9.98
2023-01-08T20:23:02.277Z,9.96
2023-01-08T20:25:31.373Z,9.94
2023-01-08T20:28:05.309Z,9.92
2023-01-08T20:30:33.969Z,9.90
2023-01-08T20:33:05.058Z,9.90
2023-01-08T20:35:37.526Z,9.88
2023-01-08T20:38:06.860Z,9.86
2023-01-08T20:40:38.821Z,9.82
2023-01-08T20:43:09.454Z,9.80
2023-01-08T20:45:43.123Z,9.75
2023-01-08T20:48:12.724Z,9.74
2023-01-08T20:50:47.069Z,9.70
2023-01-08T20:53:16.997Z,9.68
2023-01-08T20:55:46.393Z,9.64
2023-01-08T20:58:17.260Z,9.62
2023-01-08T21:00:46.739Z,9.60
2023-01-08T21:03:16.051Z,9.58
2023-01-08T21:05:44.781Z,9.56
2023-01-08T21:08:14.014Z,9.51
2023-01-08T21:10:42.863Z,9.46
2023-01-08T21:13:11.833Z,9.41
2023-01-08T21:15:41.732Z,9.38
2023-01-08T21:18:10.723Z,9.33
2023-01-08T21:20:39.652Z,9.30
2023-01-08T21:23:08.275Z,9.29
2023-01-08T21:25:36.981Z,9.27
2023-01-08T21:28:06.248Z,9.26
2023-01-08T21:30:35.058Z,9.26
2023-01-08T21:33:05.151Z,9.26
2023-01-08T21:35:35.305Z,9.26
2023-01-08T21:38:03.761Z,9.29
2023-01-08T21:40:32.328Z,9.28
2023-01-08T21:43:18.586Z,9.31
2023-01-08T21:45:52.602Z,9.29
2023-01-08T21:48:22.542Z,9.30
2023-01-08T21:50:51.039Z,9.31
2023-01-08T21:53:36.167Z,9.30
2023-01-08T21:56:06.153Z,9.32
2023-01-08T21:58:34.756Z,9.33
2023-01-08T22:01:03.222Z,9.32
2023-01-08T22:03:33.154Z,9.34
2023-01-08T22:06:04.222Z,9.36
2023-01-08T22:08:33.173Z,9.37
2023-01-08T22:11:03.163Z,9.39
2023-01-08T22:13:32.600Z,9.41
2023-01-08T22:16:06.151Z,9.41
2023-01-08T22:18:36.446Z,9.42
2023-01-08T22:21:07.477Z,9.43
2023-01-08T22:23:36.937Z,9.43
2023-01-08T22:26:06.929Z,9.42
2023-01-08T22:28:39.176Z,9.44
2023-01-08T22:31:09.187Z,9.45
2023-01-08T22:33:40.018Z,9.47
2023-01-08T22:36:12.242Z,9.49
2023-01-08T22:38:41.103Z,9.50
2023-01-08T22:41:17.580Z,9.51
2023-01-08T22:43:46.113Z,9.53
2023-01-08T22:46:17.135Z,9.54
2023-01-08T22:48:47.005Z,9.56
2023-01-08T22:51:15.497Z,9.56
2023-01-08T22:53:43.963Z,9.57
2023-01-08T22:56:13.269Z,9.57
2023-01-08T22:58:42.911Z,9.58
2023-01-08T23:01:16.498Z,9.58
2023-01-08T23:03:49.007Z,9.61
2023-01-08T23:06:19.690Z,9.61
2023-01-08T23:08:48.695Z,9.64
2023-01-08T23:11:20.469Z,9.66
2023-01-08T23:13:51.087Z,9.69
2023-01-08T23:16:24.493Z,9.72
2023-01-08T23:18:56.018Z,9.76
2023-01-08T23:21:27.362Z,9.79
2023-01-08T23:23:55.846Z,9.81
2023-01-08T23:26:27.132Z,9.83
2023-01-08T23:28:57.219Z,9.84
2023-01-08T23:31:28.544Z,9.85
2023-01-08T23:33:58.725Z,9.88
2023-01-08T23:36:27.805Z,9.92
2023-01-08T23:38:57.601Z,9.95
2023-01-08T23:41:33.744Z,9.94
2023-01-08T23:44:05.801Z,9.95
2023-01-08T23:46:34.577Z,9.96
2023-01-08T23:49:04.553Z,9.97
2023-01-08T23:51:33.000Z,9.98
2023-01-08T23:54:01.598Z,9.98
2023-01-08T23:56:30.160Z,9.96
2023-01-08T23:58:59.162Z,9.99
